createdAt,value
2018-10-05T00:00:14.966Z,0.00
2018-10-05T00:01:14.952Z,0.00
2018-10-05T00:02:14.947Z,0.00
2018-10-05T00:03:14.940Z,0.00
2018-10-05T00:04:14.933Z,0.00
2018-10-05T00:05:14.931Z,0.00
2018-10-05T00:06:14.925Z,0.00
2018-10-05T00:07:14.914Z,0.00
2018-10-05T00:08:14.907Z,0.00
2018-10-05T00:09:14.906Z,0.00
2018-10-05T00:10:14.900Z,0.00
2018-10-05T00:11:14.894Z,0.00
2018-10-05T00:12:14.886Z,0.00
2018-10-05T00:13:14.877Z,0.00
2018-10-05T00:14:14.869Z,0.00
2018-10-05T00:15:14.863Z,0.00
2018-10-05T00:16:14.855Z,0.00
2018-10-05T00:17:14.855Z,0.00
2018-10-05T00:18:14.848Z,0.00
2018-10-05T00:19:14.841Z,0.00
2018-10-05T00:20:14.834Z,0.00
2018-10-05T00:21:14.822Z,0.00
2018-10-05T00:22:14.816Z,0.00
2018-10-05T00:23:14.815Z,0.00
2018-10-05T00:24:14.807Z,0.00
2018-10-05T00:25:14.801Z,0.00
2018-10-05T00:26:14.790Z,0.00
2018-10-05T00:27:14.785Z,0.00
2018-10-05T00:28:14.777Z,0.00
2018-10-05T00:29:14.778Z,0.00
2018-10-05T00:30:14.769Z,0.00
2018-10-05T00:31:14.763Z,0.00
2018-10-05T00:32:14.760Z,0.00
2018-10-05T00:33:14.745Z,0.00
2018-10-05T00:34:14.741Z,0.00
2018-10-05T00:35:14.731Z,0.00
2018-10-05T00:36:14.723Z,0.00
2018-10-05T00:37:14.722Z,0.00
2018-10-05T00:38:14.717Z,0.00
2018-10-05T00:39:14.705Z,0.00
2018-10-05T00:40:14.701Z,0.00
2018-10-05T00:41:14.695Z,0.00
2018-10-05T00:42:14.690Z,0.00
2018-10-05T00:43:14.684Z,0.00
2018-10-05T00:44:14.676Z,0.00
2018-10-05T00:45:14.665Z,0.00
2018-10-05T00:46:14.659Z,0.00
2018-10-05T00:47:14.652Z,0.00
2018-10-05T00:48:14.649Z,0.00
2018-10-05T00:49:14.644Z,0.00
2018-10-05T00:50:14.637Z,0.00
2018-10-05T00:51:14.630Z,0.00
2018-10-05T00:52:14.623Z,0.00
2018-10-05T00:53:14.712Z,0.00
2018-10-05T00:54:14.609Z,0.00
2018-10-05T00:55:14.604Z,0.00
2018-10-05T00:56:14.596Z,0.00
2018-10-05T00:57:14.586Z,0.00
2018-10-05T00:58:14.581Z,0.00
2018-10-05T00:59:14.574Z,0.00
2018-10-05T01:00:14.566Z,0.00
2018-10-05T01:01:14.565Z,0.00
2018-10-05T01:02:14.559Z,0.00
2018-10-05T01:03:14.553Z,0.00
2018-10-05T01:04:14.545Z,0.00
2018-10-05T01:05:14.534Z,0.00
2018-10-05T01:06:14.530Z,0.00
2018-10-05T01:07:14.520Z,0.00
2018-10-05T01:08:14.513Z,0.00
2018-10-05T01:09:14.512Z,0.00
2018-10-05T01:10:14.505Z,0.00
2018-10-05T01:11:14.500Z,0.00
2018-10-05T01:12:14.488Z,0.00
2018-10-05T01:13:14.484Z,0.00
2018-10-05T01:14:14.479Z,0.00
2018-10-05T01:15:14.474Z,0.00
2018-10-05T01:16:14.466Z,0.00
2018-10-05T01:17:14.456Z,0.00
2018-10-05T01:18:14.449Z,0.00
2018-10-05T01:19:14.442Z,0.00
2018-10-05T01:20:14.435Z,0.00
2018-10-05T01:21:14.434Z,0.00
2018-10-05T01:22:14.428Z,0.00
2018-10-05T01:23:14.420Z,0.00
2018-10-05T01:24:14.412Z,0.00
2018-10-05T01:25:14.403Z,0.00
2018-10-05T01:26:14.396Z,0.00
2018-10-05T01:27:14.394Z,0.00
2018-10-05T01:28:14.386Z,0.00
2018-10-05T01:29:14.375Z,0.00
2018-10-05T01:30:14.375Z,0.00
2018-10-05T01:31:14.364Z,0.00
2018-10-05T01:32:14.355Z,0.00
2018-10-05T01:33:14.355Z,0.00
2018-10-05T01:34:14.348Z,0.00
2018-10-05T01:35:14.342Z,0.00
2018-10-05T01:36:14.334Z,0.00
2018-10-05T01:37:14.327Z,0.00
2018-10-05T01:38:14.321Z,0.00
2018-10-05T01:39:14.312Z,0.00
2018-10-05T01:40:14.303Z,0.00
2018-10-05T01:41:14.301Z,0.00
2018-10-05T01:42:14.294Z,0.00
2018-10-05T01:43:14.283Z,0.00
2018-10-05T01:44:14.276Z,0.00
2018-10-05T01:45:14.274Z,0.00
2018-10-05T01:46:14.272Z,0.00
2018-10-05T01:47:14.263Z,0.00
2018-10-05T01:48:14.255Z,0.00
2018-10-05T01:49:14.243Z,0.00
2018-10-05T01:50:14.237Z,0.00
2018-10-05T01:51:14.234Z,0.00
2018-10-05T01:52:14.223Z,0.00
2018-10-05T01:53:14.221Z,0.00
2018-10-05T01:54:14.214Z,0.00
2018-10-05T01:55:14.209Z,0.00
2018-10-05T01:56:14.201Z,0.00
2018-10-05T01:57:14.190Z,0.00
2018-10-05T01:58:14.184Z,0.00
2018-10-05T01:59:14.183Z,0.00
2018-10-05T02:00:14.176Z,0.00
2018-10-05T02:01:14.163Z,0.00
2018-10-05T02:02:14.157Z,0.00
2018-10-05T02:03:14.153Z,0.00
2018-10-05T02:04:14.143Z,0.00
2018-10-05T02:05:14.141Z,0.00
2018-10-05T02:06:14.182Z,0.00
2018-10-05T02:07:14.127Z,0.00
2018-10-05T02:08:14.120Z,0.00
2018-10-05T02:09:14.109Z,0.00
2018-10-05T02:10:14.104Z,0.00
2018-10-05T02:11:14.099Z,0.00
2018-10-05T02:12:14.089Z,0.00
2018-10-05T02:13:14.089Z,0.00
2018-10-05T02:14:14.081Z,0.00
2018-10-05T02:15:14.070Z,0.00
2018-10-05T02:16:14.063Z,0.00
2018-10-05T02:17:14.062Z,0.00
2018-10-05T02:18:14.053Z,0.00
2018-10-05T02:19:14.047Z,0.00
2018-10-05T02:20:14.041Z,0.00
2018-10-05T02:21:14.029Z,0.00
2018-10-05T02:22:14.028Z,0.00
2018-10-05T02:23:14.016Z,0.00
2018-10-05T02:24:14.008Z,0.00
2018-10-05T02:25:14.006Z,0.00
2018-10-05T02:26:14.000Z,0.00
2018-10-05T02:27:13.995Z,0.00
2018-10-05T02:28:13.986Z,0.00
2018-10-05T02:29:13.975Z,0.00
2018-10-05T02:30:13.969Z,0.00
2018-10-05T02:31:13.967Z,0.00
2018-10-05T02:32:13.961Z,0.00
2018-10-05T02:33:13.950Z,0.00
2018-10-05T02:34:13.941Z,0.00
2018-10-05T02:35:13.935Z,0.00
2018-10-05T02:36:13.928Z,0.00
2018-10-05T02:37:13.929Z,0.00
2018-10-05T02:38:13.919Z,0.00
2018-10-05T02:39:13.912Z,0.00
2018-10-05T02:40:13.906Z,0.00
2018-10-05T02:41:13.893Z,0.00
2018-10-05T02:42:13.888Z,0.00
2018-10-05T02:43:13.882Z,0.00
2018-10-05T02:44:13.873Z,0.00
2018-10-05T02:45:13.871Z,0.00
2018-10-05T02:46:13.866Z,0.00
2018-10-05T02:47:13.853Z,0.00
2018-10-05T02:48:13.847Z,0.00
2018-10-05T02:49:13.847Z,0.00
2018-10-05T02:50:13.838Z,0.00
2018-10-05T02:51:13.831Z,0.00
2018-10-05T02:52:13.824Z,0.00
2018-10-05T02:53:13.811Z,0.00
2018-10-05T02:54:13.808Z,0.00
2018-10-05T02:55:13.800Z,0.00
2018-10-05T02:56:13.791Z,0.00
2018-10-05T02:57:13.788Z,0.00
2018-10-05T02:58:13.783Z,0.00
2018-10-05T02:59:13.776Z,0.00
2018-10-05T03:00:13.769Z,0.00
2018-10-05T03:01:13.756Z,0.00
2018-10-05T03:02:13.750Z,0.00
2018-10-05T03:03:13.748Z,0.00
2018-10-05T03:04:13.740Z,0.00
2018-10-05T03:05:13.729Z,0.00
2018-10-05T03:06:13.722Z,0.00
2018-10-05T03:07:13.717Z,0.00
2018-10-05T03:08:13.709Z,0.00
2018-10-05T03:09:13.707Z,0.00
2018-10-05T03:10:13.702Z,0.00
2018-10-05T03:11:13.693Z,0.00
2018-10-05T03:12:13.684Z,0.00
2018-10-05T03:13:13.676Z,0.00
2018-10-05T03:14:13.671Z,0.00
2018-10-05T03:15:13.718Z,0.00
2018-10-05T03:16:13.653Z,0.00
2018-10-05T03:17:13.650Z,0.00
2018-10-05T03:18:13.645Z,0.00
2018-10-05T03:19:13.633Z,0.00
2018-10-05T03:20:13.626Z,0.00
2018-10-05T03:21:13.623Z,0.00
2018-10-05T03:22:13.618Z,0.00
2018-10-05T03:23:13.611Z,0.00
2018-10-05T03:24:13.604Z,0.00
2018-10-05T03:25:13.592Z,0.00
2018-10-05T03:26:13.588Z,0.00
2018-10-05T03:27:13.578Z,0.00
2018-10-05T03:28:13.571Z,0.00
2018-10-05T03:29:13.568Z,0.00
2018-10-05T03:30:13.563Z,0.00
2018-10-05T03:31:13.556Z,0.00
2018-10-05T03:32:13.552Z,0.00
2018-10-05T03:33:13.538Z,0.00
2018-10-05T03:34:13.532Z,0.00
2018-10-05T03:35:13.528Z,0.00
2018-10-05T03:36:13.520Z,0.00
2018-10-05T03:37:13.510Z,0.00
2018-10-05T03:38:13.501Z,0.00
2018-10-05T03:39:13.498Z,0.00
2018-10-05T03:40:13.487Z,0.00
2018-10-05T03:41:13.486Z,0.00
2018-10-05T03:42:13.479Z,0.00
2018-10-05T03:43:13.471Z,0.00
2018-10-05T03:44:13.463Z,0.00
2018-10-05T03:45:13.454Z,0.00
2018-10-05T03:46:13.446Z,0.00
2018-10-05T03:47:13.440Z,0.00
2018-10-05T03:48:13.431Z,0.00
2018-10-05T03:49:13.429Z,0.00
2018-10-05T03:50:13.423Z,0.00
2018-10-05T03:51:13.411Z,0.00
2018-10-05T03:52:13.403Z,0.00
2018-10-05T03:53:13.401Z,0.00
2018-10-05T03:54:13.396Z,0.00
2018-10-05T03:55:13.388Z,0.00
2018-10-05T03:56:13.381Z,0.00
2018-10-05T03:57:13.369Z,0.00
2018-10-05T03:58:13.364Z,0.00
2018-10-05T03:59:13.354Z,0.00
2018-10-05T04:00:13.347Z,0.00
2018-10-05T04:01:13.344Z,0.00
2018-10-05T04:02:13.338Z,0.00
2018-10-05T04:03:13.332Z,0.00
2018-10-05T04:04:13.325Z,0.00
2018-10-05T04:05:13.311Z,0.00
2018-10-05T04:06:13.304Z,0.00
2018-10-05T04:07:13.302Z,0.00
2018-10-05T04:08:13.295Z,0.00
2018-10-05T04:09:13.284Z,0.00
2018-10-05T04:10:13.276Z,0.00
2018-10-05T04:11:13.270Z,0.00
2018-10-05T04:12:13.262Z,0.00
2018-10-05T04:13:13.262Z,0.00
2018-10-05T04:14:13.252Z,0.00
2018-10-05T04:15:13.248Z,0.00
2018-10-05T04:16:13.240Z,0.00
2018-10-05T04:17:13.229Z,0.00
2018-10-05T04:18:13.219Z,0.00
2018-10-05T04:19:13.215Z,0.00
2018-10-05T04:20:13.206Z,0.00
2018-10-05T04:21:13.207Z,0.00
2018-10-05T04:22:13.200Z,0.00
2018-10-05T04:23:13.184Z,0.00
2018-10-05T04:24:13.176Z,0.00
2018-10-05T04:25:13.173Z,0.00
2018-10-05T04:26:13.168Z,0.00
2018-10-05T04:27:13.171Z,0.00
2018-10-05T04:28:13.152Z,0.00
2018-10-05T04:29:13.140Z,0.00
2018-10-05T04:30:13.134Z,0.00
2018-10-05T04:31:13.128Z,0.00
2018-10-05T04:32:13.119Z,0.00
2018-10-05T04:33:13.117Z,0.00
2018-10-05T04:34:13.111Z,0.00
2018-10-05T04:35:13.103Z,0.00
2018-10-05T04:36:13.096Z,0.00
2018-10-05T04:37:13.084Z,0.00
2018-10-05T04:38:13.079Z,0.00
2018-10-05T04:39:13.074Z,0.00
2018-10-05T04:40:13.067Z,0.00
2018-10-05T04:41:13.093Z,0.00
2018-10-05T04:42:13.048Z,0.00
2018-10-05T04:43:13.040Z,0.00
2018-10-05T04:44:13.032Z,0.00
2018-10-05T04:45:13.030Z,0.00
2018-10-05T04:46:13.023Z,0.00
2018-10-05T04:47:13.016Z,0.00
2018-10-05T04:48:13.009Z,0.00
2018-10-05T04:49:12.999Z,0.00
2018-10-05T04:50:12.990Z,0.00
2018-10-05T04:51:12.984Z,0.00
2018-10-05T04:52:12.976Z,0.00
2018-10-05T04:53:12.974Z,0.00
2018-10-05T04:54:12.966Z,0.00
2018-10-05T04:55:12.958Z,0.00
2018-10-05T04:56:12.948Z,0.00
2018-10-05T04:57:12.946Z,0.00
2018-10-05T04:58:12.939Z,0.00
2018-10-05T04:59:12.934Z,0.00
2018-10-05T05:00:12.923Z,0.00
2018-10-05T05:01:12.911Z,0.00
2018-10-05T05:02:12.906Z,0.00
2018-10-05T05:03:12.903Z,0.00
2018-10-05T05:04:12.897Z,4.00
2018-10-05T05:05:12.884Z,0.00
2018-10-05T05:06:12.876Z,0.00
2018-10-05T05:07:12.870Z,4.00
2018-10-05T05:08:12.862Z,0.00
2018-10-05T05:09:12.859Z,4.00
2018-10-05T05:10:12.856Z,4.00
2018-10-05T05:11:12.840Z,4.00
2018-10-05T05:12:12.904Z,4.00
2018-10-05T05:13:12.829Z,8.00
2018-10-05T05:14:12.823Z,12.00
2018-10-05T05:15:12.818Z,12.00
2018-10-05T05:16:12.810Z,16.00
2018-10-05T05:17:12.797Z,20.00
2018-10-05T05:18:12.791Z,20.00
2018-10-05T05:19:12.791Z,28.00
2018-10-05T05:20:12.778Z,32.00
2018-10-05T05:21:12.774Z,32.00
2018-10-05T05:22:12.767Z,40.00
2018-10-05T05:23:12.760Z,48.00
2018-10-05T05:24:12.752Z,56.00
2018-10-05T05:25:12.740Z,60.00
2018-10-05T05:26:12.734Z,72.00
2018-10-05T05:27:12.731Z,84.00
2018-10-05T05:28:12.722Z,96.00
2018-10-05T05:29:12.711Z,104.00
2018-10-05T05:30:12.705Z,120.00
2018-10-05T05:31:12.697Z,132.00
2018-10-05T05:32:12.690Z,148.00
2018-10-05T05:33:12.688Z,164.00
2018-10-05T05:34:12.681Z,184.00
2018-10-05T05:35:12.675Z,204.00
2018-10-05T05:36:12.668Z,224.00
2018-10-05T05:37:12.655Z,244.00
2018-10-05T05:38:12.647Z,268.00
2018-10-05T05:39:12.641Z,296.00
2018-10-05T05:40:12.665Z,324.00
2018-10-05T05:41:12.630Z,352.00
2018-10-05T05:42:12.627Z,380.00
2018-10-05T05:43:12.613Z,416.00
2018-10-05T05:44:12.605Z,448.00
2018-10-05T05:45:12.602Z,488.00
2018-10-05T05:46:12.594Z,524.00
2018-10-05T05:47:12.589Z,560.00
2018-10-05T05:48:12.581Z,604.00
2018-10-05T05:49:12.569Z,644.00
2018-10-05T05:50:12.563Z,688.00
2018-10-05T05:51:12.555Z,732.00
2018-10-05T05:52:12.548Z,776.00
2018-10-05T05:53:12.546Z,820.00
2018-10-05T05:54:12.590Z,868.00
2018-10-05T05:55:12.533Z,916.00
2018-10-05T05:56:12.524Z,964.00
2018-10-05T05:57:12.513Z,1012.00
2018-10-05T05:58:12.508Z,1060.00
2018-10-05T05:59:12.507Z,1108.00
2018-10-05T06:00:12.502Z,1156.00
2018-10-05T06:01:12.595Z,1204.00
2018-10-05T06:02:12.478Z,1260.00
2018-10-05T06:03:12.473Z,1316.00
2018-10-05T06:04:12.465Z,1384.00
2018-10-05T06:05:12.464Z,1448.00
2018-10-05T06:06:12.457Z,1496.00
2018-10-05T06:07:12.456Z,1564.00
2018-10-05T06:08:12.528Z,1972.00
2018-10-05T06:09:12.430Z,2888.00
2018-10-05T06:10:12.424Z,3448.00
2018-10-05T06:11:12.419Z,4408.00
2018-10-05T06:12:12.413Z,6128.00
2018-10-05T06:13:12.408Z,7560.00
2018-10-05T06:14:12.402Z,8088.00
2018-10-05T06:15:12.391Z,8492.00
2018-10-05T06:16:12.501Z,8796.00
2018-10-05T06:17:12.383Z,9164.00
2018-10-05T06:18:12.379Z,9512.00
2018-10-05T06:19:12.371Z,9872.00
2018-10-05T06:20:12.364Z,10188.00
2018-10-05T06:21:12.354Z,10496.00
2018-10-05T06:22:12.575Z,10856.00
2018-10-05T06:23:12.344Z,11248.00
2018-10-05T06:24:12.340Z,11744.00
2018-10-05T06:25:12.338Z,12128.00
2018-10-05T06:26:12.336Z,12512.00
2018-10-05T06:27:12.384Z,13056.00
2018-10-05T06:28:12.326Z,13856.00
2018-10-05T06:29:12.318Z,14592.00
2018-10-05T06:30:12.314Z,14848.00
2018-10-05T06:31:12.372Z,14880.00
2018-10-05T06:32:12.313Z,14944.00
2018-10-05T06:33:12.336Z,15168.00
2018-10-05T06:34:12.305Z,15456.00
2018-10-05T06:35:12.300Z,15904.00
2018-10-05T06:36:12.297Z,16640.00
2018-10-05T06:37:12.303Z,17472.00
2018-10-05T06:38:12.409Z,17888.00
2018-10-05T06:39:12.464Z,17952.00
2018-10-05T06:40:12.296Z,17888.00
2018-10-05T06:41:12.289Z,17920.00
2018-10-05T06:42:12.434Z,18048.00
2018-10-05T06:43:12.295Z,18144.00
2018-10-05T06:44:12.288Z,18304.00
2018-10-05T06:45:12.293Z,18496.00
2018-10-05T06:46:12.293Z,18656.00
2018-10-05T06:47:12.288Z,18816.00
2018-10-05T06:48:12.287Z,19008.00
2018-10-05T06:49:12.293Z,19264.00
2018-10-05T06:50:12.294Z,19424.00
2018-10-05T06:51:12.294Z,19712.00
2018-10-05T06:52:12.294Z,20000.00
2018-10-05T06:53:12.342Z,20224.00
2018-10-05T06:54:12.292Z,20448.00
2018-10-05T06:55:12.294Z,20608.00
2018-10-05T06:56:12.293Z,20864.00
2018-10-05T06:57:12.301Z,20800.00
2018-10-05T06:58:12.303Z,21312.00
2018-10-05T06:59:12.305Z,21504.00
2018-10-05T07:00:12.307Z,21792.00
2018-10-05T07:01:12.315Z,21984.00
2018-10-05T07:02:12.307Z,22176.00
2018-10-05T07:03:12.314Z,22336.00
2018-10-05T07:04:12.315Z,22592.00
2018-10-05T07:05:12.313Z,22752.00
2018-10-05T07:06:12.316Z,22784.00
2018-10-05T07:07:12.318Z,22816.00
2018-10-05T07:08:12.381Z,23264.00
2018-10-05T07:09:12.328Z,23456.00
2018-10-05T07:10:12.333Z,23776.00
2018-10-05T07:11:12.336Z,23968.00
2018-10-05T07:12:12.338Z,24064.00
2018-10-05T07:13:12.338Z,24096.00
2018-10-05T07:14:12.342Z,24192.00
2018-10-05T07:15:12.344Z,24256.00
2018-10-05T07:16:12.347Z,24512.00
2018-10-05T07:17:12.355Z,24608.00
2018-10-05T07:18:12.359Z,24736.00
2018-10-05T07:19:12.363Z,24896.00
2018-10-05T07:20:12.362Z,25056.00
2018-10-05T07:21:12.416Z,25248.00
2018-10-05T07:22:12.381Z,25440.00
2018-10-05T07:23:12.381Z,25536.00
2018-10-05T07:24:12.384Z,25792.00
2018-10-05T07:25:12.383Z,25952.00
2018-10-05T07:26:12.439Z,26080.00
2018-10-05T07:27:12.393Z,26208.00
2018-10-05T07:28:12.444Z,26240.00
2018-10-05T07:29:12.406Z,26176.00
2018-10-05T07:30:12.412Z,26464.00
2018-10-05T07:31:12.415Z,26624.00
2018-10-05T07:32:12.420Z,26688.00
2018-10-05T07:33:12.420Z,26848.00
2018-10-05T07:34:12.436Z,27072.00
2018-10-05T07:35:12.435Z,27072.00
2018-10-05T07:36:12.445Z,27136.00
2018-10-05T07:37:12.445Z,13548.00
2018-10-05T07:38:12.445Z,13512.00
2018-10-05T07:39:12.451Z,13708.00
2018-10-05T07:40:12.457Z,13764.00
2018-10-05T07:41:12.469Z,13840.00
2018-10-05T07:42:12.473Z,13976.00
2018-10-05T07:43:12.483Z,14060.00
2018-10-05T07:44:12.483Z,14136.00
2018-10-05T07:45:12.482Z,14368.00
2018-10-05T07:46:12.494Z,14432.00
2018-10-05T07:47:12.495Z,14496.00
2018-10-05T07:48:12.499Z,14720.00
2018-10-05T07:49:12.509Z,14848.00
2018-10-05T07:50:12.516Z,14880.00
2018-10-05T07:51:12.516Z,14976.00
2018-10-05T07:52:12.521Z,15136.00
2018-10-05T07:53:12.532Z,15200.00
2018-10-05T07:54:12.537Z,15328.00
2018-10-05T07:55:12.545Z,15456.00
2018-10-05T07:56:12.551Z,15584.00
2018-10-05T07:57:12.554Z,15808.00
2018-10-05T07:58:12.559Z,15872.00
2018-10-05T07:59:12.572Z,15776.00
2018-10-05T08:00:12.569Z,15968.00
2018-10-05T08:01:12.580Z,16128.00
2018-10-05T08:02:12.587Z,16256.00
2018-10-05T08:03:12.596Z,16480.00
2018-10-05T08:04:12.598Z,16544.00
2018-10-05T08:05:12.600Z,16160.00
2018-10-05T08:06:12.606Z,17024.00
2018-10-05T08:07:12.617Z,17120.00
2018-10-05T08:08:12.624Z,17344.00
2018-10-05T08:09:12.626Z,17376.00
2018-10-05T08:10:12.634Z,17600.00
2018-10-05T08:11:12.639Z,16384.00
2018-10-05T08:12:12.646Z,17728.00
2018-10-05T08:13:12.658Z,17856.00
2018-10-05T08:14:12.665Z,17952.00
2018-10-05T08:15:12.670Z,17952.00
2018-10-05T08:16:12.677Z,18240.00
2018-10-05T08:17:12.682Z,18080.00
2018-10-05T08:18:12.691Z,18304.00
2018-10-05T08:19:12.694Z,18208.00
2018-10-05T08:20:12.700Z,18240.00
2018-10-05T08:21:12.713Z,18368.00
2018-10-05T08:22:12.721Z,18368.00
2018-10-05T08:23:12.723Z,18464.00
2018-10-05T08:24:12.730Z,18496.00
2018-10-05T08:25:12.741Z,18624.00
2018-10-05T08:26:12.748Z,18752.00
2018-10-05T08:27:12.849Z,18912.00
2018-10-05T08:28:12.764Z,19072.00
2018-10-05T08:29:12.766Z,19200.00
2018-10-05T08:30:12.773Z,19328.00
2018-10-05T08:31:12.781Z,19424.00
2018-10-05T08:32:12.788Z,19648.00
2018-10-05T08:33:12.800Z,19936.00
2018-10-05T08:34:13.010Z,20352.00
2018-10-05T08:35:12.818Z,20672.00
2018-10-05T08:36:12.826Z,21024.00
2018-10-05T08:37:12.828Z,21440.00
2018-10-05T08:38:12.836Z,21792.00
2018-10-05T08:39:12.854Z,22048.00
2018-10-05T08:40:12.890Z,22400.00
2018-10-05T08:41:12.860Z,21984.00
2018-10-05T08:42:12.869Z,22624.00
2018-10-05T08:43:12.878Z,22432.00
2018-10-05T08:44:12.885Z,22688.00
2018-10-05T08:45:12.897Z,22976.00
2018-10-05T08:46:12.906Z,23264.00
2018-10-05T08:47:12.916Z,23456.00
2018-10-05T08:48:12.923Z,24064.00
2018-10-05T08:49:12.928Z,24352.00
2018-10-05T08:50:12.938Z,24640.00
2018-10-05T08:51:12.946Z,25088.00
2018-10-05T08:52:13.015Z,25472.00
2018-10-05T08:53:12.968Z,25568.00
2018-10-05T08:54:12.978Z,25600.00
2018-10-05T08:55:12.982Z,25376.00
2018-10-05T08:56:12.994Z,25248.00
2018-10-05T08:57:13.005Z,25696.00
2018-10-05T08:58:13.015Z,26080.00
2018-10-05T08:59:13.023Z,26272.00
2018-10-05T09:00:13.092Z,26176.00
2018-10-05T09:01:13.039Z,26944.00
2018-10-05T09:02:13.048Z,27744.00
2018-10-05T09:03:13.058Z,27616.00
2018-10-05T09:04:13.068Z,28032.00
2018-10-05T09:05:13.079Z,28480.00
2018-10-05T09:06:13.090Z,29568.00
2018-10-05T09:07:13.101Z,31168.00
2018-10-05T09:08:13.109Z,29664.00
2018-10-05T09:09:13.114Z,28224.00
2018-10-05T09:10:13.123Z,30944.00
2018-10-05T09:11:13.156Z,30976.00
2018-10-05T09:12:13.149Z,31136.00
2018-10-05T09:13:13.154Z,31392.00
2018-10-05T09:14:13.164Z,33536.00
2018-10-05T09:15:13.175Z,34592.00
2018-10-05T09:16:13.184Z,34240.00
2018-10-05T09:17:13.200Z,34112.00
2018-10-05T09:18:13.270Z,34976.00
2018-10-05T09:19:13.221Z,33184.00
2018-10-05T09:20:13.233Z,34880.00
2018-10-05T09:21:13.239Z,32928.00
2018-10-05T09:22:13.251Z,31456.00
2018-10-05T09:23:13.264Z,31648.00
2018-10-05T09:24:13.310Z,32064.00
2018-10-05T09:25:13.292Z,33952.00
2018-10-05T09:26:13.302Z,39104.00
2018-10-05T09:27:13.306Z,46304.00
2018-10-05T09:28:13.317Z,43552.00
2018-10-05T09:29:13.334Z,41920.00
2018-10-05T09:30:13.347Z,39360.00
2018-10-05T09:31:13.364Z,35328.00
2018-10-05T09:32:13.369Z,31776.00
2018-10-05T09:33:13.377Z,32384.00
2018-10-05T09:34:13.387Z,30976.00
2018-10-05T09:35:13.401Z,30016.00
2018-10-05T09:36:13.412Z,29568.00
2018-10-05T09:37:13.469Z,28832.00
2018-10-05T09:38:13.441Z,27840.00
2018-10-05T09:39:13.454Z,28736.00
2018-10-05T09:40:13.466Z,29440.00
2018-10-05T09:41:13.474Z,28512.00
2018-10-05T09:42:13.485Z,27008.00
2018-10-05T09:43:13.504Z,27104.00
2018-10-05T09:44:13.517Z,27936.00
2018-10-05T09:45:13.588Z,28000.00
2018-10-05T09:46:13.535Z,28512.00
2018-10-05T09:47:13.547Z,30432.00
2018-10-05T09:48:13.559Z,26080.00
2018-10-05T09:49:13.576Z,23072.00
2018-10-05T09:50:13.590Z,22752.00
2018-10-05T09:51:13.604Z,22272.00
2018-10-05T09:52:13.673Z,22784.00
2018-10-05T09:53:13.621Z,22720.00
2018-10-05T09:54:13.635Z,22464.00
2018-10-05T09:55:13.646Z,22432.00
2018-10-05T09:56:13.657Z,22368.00
2018-10-05T09:57:13.674Z,22304.00
2018-10-05T09:58:13.690Z,22400.00
2018-10-05T09:59:13.696Z,22432.00
2018-10-05T10:00:13.772Z,22432.00
2018-10-05T10:01:13.723Z,22592.00
2018-10-05T10:02:13.737Z,22368.00
2018-10-05T10:03:13.748Z,22176.00
2018-10-05T10:04:13.759Z,21984.00
2018-10-05T10:05:13.767Z,22176.00
2018-10-05T10:06:13.779Z,22816.00
2018-10-05T10:07:13.792Z,24448.00
2018-10-05T10:08:13.925Z,24544.00
2018-10-05T10:09:13.820Z,23680.00
2018-10-05T10:10:13.833Z,23936.00
2018-10-05T10:11:13.847Z,24224.00
2018-10-05T10:12:13.858Z,25120.00
2018-10-05T10:13:13.869Z,25792.00
2018-10-05T10:14:13.878Z,24416.00
2018-10-05T10:15:13.895Z,23296.00
2018-10-05T10:16:13.908Z,22976.00
2018-10-05T10:17:13.914Z,22784.00
2018-10-05T10:18:13.934Z,22816.00
2018-10-05T10:19:13.939Z,22688.00
2018-10-05T10:20:13.950Z,22432.00
2018-10-05T10:21:13.967Z,22720.00
2018-10-05T10:22:13.982Z,22752.00
2018-10-05T10:23:13.995Z,22688.00
2018-10-05T10:24:14.007Z,22720.00
2018-10-05T10:25:14.013Z,22208.00
2018-10-05T10:26:14.028Z,21984.00
2018-10-05T10:27:14.041Z,21056.00
2018-10-05T10:28:14.181Z,20544.00
2018-10-05T10:29:14.177Z,21856.00
2018-10-05T10:30:14.082Z,21312.00
2018-10-05T10:31:14.090Z,22624.00
2018-10-05T10:32:14.101Z,16352.00
2018-10-05T10:33:14.119Z,22176.00
2018-10-05T10:34:14.138Z,21664.00
2018-10-05T10:35:14.147Z,21664.00
2018-10-05T10:36:14.157Z,20800.00
2018-10-05T10:37:14.164Z,21984.00
2018-10-05T10:38:14.177Z,22528.00
2018-10-05T10:39:14.187Z,23872.00
2018-10-05T10:40:14.200Z,23136.00
2018-10-05T10:41:14.217Z,21984.00
2018-10-05T10:42:14.228Z,21952.00
2018-10-05T10:43:14.240Z,22336.00
2018-10-05T10:44:14.252Z,22496.00
2018-10-05T10:45:14.258Z,22432.00
2018-10-05T10:46:14.273Z,23296.00
2018-10-05T10:47:14.286Z,27776.00
2018-10-05T10:48:14.367Z,27360.00
2018-10-05T10:49:14.304Z,24416.00
2018-10-05T10:50:14.317Z,23552.00
2018-10-05T10:51:14.331Z,22624.00
2018-10-05T10:52:14.339Z,22240.00
2018-10-05T10:53:14.355Z,21568.00
2018-10-05T10:54:14.425Z,21696.00
2018-10-05T10:55:14.379Z,22304.00
2018-10-05T10:56:14.454Z,22432.00
2018-10-05T10:57:14.396Z,21504.00
2018-10-05T10:58:14.407Z,21792.00
2018-10-05T10:59:14.418Z,21696.00
2018-10-05T11:00:14.432Z,23232.00
2018-10-05T11:01:14.449Z,23264.00
2018-10-05T11:02:14.456Z,23296.00
2018-10-05T11:03:14.501Z,23392.00
2018-10-05T11:04:14.491Z,22144.00
2018-10-05T11:05:14.490Z,22080.00
2018-10-05T11:06:14.501Z,22880.00
2018-10-05T11:07:14.514Z,23200.00
2018-10-05T11:08:14.523Z,25728.00
2018-10-05T11:09:14.528Z,27008.00
2018-10-05T11:10:14.539Z,30304.00
2018-10-05T11:11:14.618Z,30368.00
2018-10-05T11:12:14.560Z,22208.00
2018-10-05T11:13:14.576Z,30048.00
2018-10-05T11:14:14.587Z,27168.00
2018-10-05T11:15:14.596Z,21120.00
2018-10-05T11:16:14.605Z,9432.00
2018-10-05T11:17:14.610Z,6172.00
2018-10-05T11:18:14.620Z,5896.00
2018-10-05T11:19:14.634Z,5788.00
2018-10-05T11:20:14.642Z,5512.00
2018-10-05T11:21:14.649Z,5408.00
2018-10-05T11:22:14.656Z,5352.00
2018-10-05T11:23:14.763Z,5280.00
2018-10-05T11:24:14.672Z,5272.00
2018-10-05T11:25:14.685Z,5232.00
2018-10-05T11:26:14.698Z,5128.00
2018-10-05T11:27:14.698Z,5156.00
2018-10-05T11:28:14.707Z,4980.00
2018-10-05T11:29:14.706Z,4708.00
2018-10-05T11:30:14.713Z,4920.00
2018-10-05T11:31:14.720Z,4932.00
2018-10-05T11:32:14.725Z,4932.00
2018-10-05T11:33:14.736Z,4916.00
2018-10-05T11:34:14.741Z,4852.00
2018-10-05T11:35:14.747Z,4852.00
2018-10-05T11:36:14.746Z,4812.00
2018-10-05T11:37:14.757Z,4756.00
2018-10-05T11:38:14.760Z,4704.00
2018-10-05T11:39:14.764Z,4648.00
2018-10-05T11:40:14.770Z,4596.00
2018-10-05T11:41:14.769Z,4544.00
2018-10-05T11:42:14.772Z,4496.00
2018-10-05T11:43:14.778Z,4440.00
2018-10-05T11:44:14.780Z,4416.00
2018-10-05T11:45:14.789Z,4056.00
2018-10-05T11:46:14.800Z,4344.00
2018-10-05T11:47:14.797Z,4292.00
2018-10-05T11:48:14.799Z,4264.00
2018-10-05T11:49:14.798Z,4244.00
2018-10-05T11:50:14.802Z,4220.00
2018-10-05T11:51:14.811Z,4080.00
2018-10-05T11:52:14.831Z,4032.00
2018-10-05T11:53:14.812Z,4124.00
2018-10-05T11:54:14.813Z,4080.00
2018-10-05T11:55:14.817Z,4076.00
2018-10-05T11:56:14.818Z,4048.00
2018-10-05T11:57:14.838Z,4032.00
2018-10-05T11:58:14.828Z,3988.00
2018-10-05T11:59:14.833Z,3948.00
2018-10-05T12:00:14.833Z,3936.00
2018-10-05T12:01:14.831Z,3892.00
2018-10-05T12:02:14.833Z,3836.00
2018-10-05T12:03:14.837Z,3808.00
2018-10-05T12:04:14.837Z,3744.00
2018-10-05T12:05:14.854Z,3872.00
2018-10-05T12:06:14.847Z,3868.00
2018-10-05T12:07:14.844Z,3860.00
2018-10-05T12:08:14.845Z,3836.00
2018-10-05T12:09:14.853Z,3816.00
2018-10-05T12:10:14.855Z,3784.00
2018-10-05T12:11:14.855Z,3764.00
2018-10-05T12:12:14.856Z,3752.00
2018-10-05T12:13:14.855Z,3680.00
2018-10-05T12:14:14.857Z,3624.00
2018-10-05T12:15:14.858Z,3680.00
2018-10-05T12:16:14.858Z,3676.00
2018-10-05T12:17:14.865Z,3676.00
2018-10-05T12:18:14.867Z,3640.00
2018-10-05T12:19:14.876Z,3636.00
2018-10-05T12:20:14.870Z,3612.00
2018-10-05T12:21:14.866Z,3596.00
2018-10-05T12:22:14.868Z,3588.00
2018-10-05T12:23:14.875Z,3576.00
2018-10-05T12:24:14.875Z,3500.00
2018-10-05T12:25:14.872Z,3408.00
2018-10-05T12:26:14.873Z,3504.00
2018-10-05T12:27:14.873Z,3484.00